createdAt,value
2023-11-18T00:01:59.619Z,95.66
2023-11-18T00:04:31.990Z,95.44
2023-11-18T00:07:01.524Z,95.56
2023-11-18T00:09:34.404Z,95.26
2023-11-18T00:12:05.393Z,95.42
2023-11-18T00:14:33.618Z,95.53
2023-11-18T00:17:04.208Z,95.94
2023-11-18T00:19:38.051Z,96.04
2023-11-18T00:22:07.802Z,95.83
2023-11-18T00:24:39.156Z,96.25
2023-11-18T00:27:08.462Z,96.27
2023-11-18T00:29:39.411Z,96.31
2023-11-18T00:32:09.692Z,95.90
2023-11-18T00:34:41.491Z,96.16
2023-11-18T00:37:11.076Z,96.64
2023-11-18T00:39:42.607Z,96.25
2023-11-18T00:42:12.554Z,95.79
2023-11-18T00:44:42.451Z,95.64
2023-11-18T00:47:11.354Z,95.63
2023-11-18T00:49:41.340Z,95.89
2023-11-18T00:52:10.993Z,95.58
2023-11-18T00:54:41.276Z,96.36
2023-11-18T00:57:10.281Z,96.27
2023-11-18T00:59:39.673Z,96.17
2023-11-18T01:02:09.722Z,96.22
2023-11-18T01:04:39.044Z,96.80
2023-11-18T01:07:08.041Z,96.60
2023-11-18T01:09:40.472Z,96.60
2023-11-18T01:12:12.212Z,96.57
2023-11-18T01:14:43.397Z,96.17
2023-11-18T01:17:12.227Z,97.08
2023-11-18T01:19:42.046Z,96.72
2023-11-18T01:22:13.024Z,96.33
2023-11-18T01:24:44.019Z,96.79
2023-11-18T01:27:14.174Z,96.11
2023-11-18T01:29:48.226Z,96.27
2023-11-18T01:32:20.410Z,96.45
2023-11-18T01:34:52.582Z,96.85
2023-11-18T01:37:24.362Z,96.41
2023-11-18T01:39:53.297Z,95.81
2023-11-18T01:42:23.503Z,96.04
2023-11-18T01:44:53.961Z,94.30
2023-11-18T01:47:22.931Z,91.52
2023-11-18T01:49:52.852Z,90.81
2023-11-18T01:52:23.247Z,91.23
2023-11-18T01:54:56.299Z,91.43
2023-11-18T01:57:28.125Z,90.56
2023-11-18T01:59:59.415Z,89.90
2023-11-18T02:02:28.878Z,89.85
2023-11-18T02:04:58.264Z,90.32
2023-11-18T02:07:27.531Z,90.16
2023-11-18T02:09:57.818Z,88.14
2023-11-18T02:12:35.590Z,88.98
2023-11-18T02:15:11.133Z,88.69
2023-11-18T02:17:41.875Z,88.39
2023-11-18T02:20:17.975Z,87.26
2023-11-18T02:22:49.375Z,89.37
2023-11-18T02:25:20.063Z,91.08
2023-11-18T02:27:51.025Z,90.19
2023-11-18T02:30:21.924Z,89.70
2023-11-18T02:32:56.192Z,88.19
2023-11-18T02:35:31.047Z,87.22
2023-11-18T02:38:01.783Z,86.35
2023-11-18T02:40:36.818Z,85.42
2023-11-18T02:43:07.985Z,85.64
2023-11-18T02:45:38.501Z,84.88
2023-11-18T02:48:08.812Z,84.51
2023-11-18T02:50:38.158Z,84.98
2023-11-18T02:53:07.172Z,82.57
2023-11-18T02:55:36.815Z,81.72
2023-11-18T02:58:07.331Z,83.00
2023-11-18T03:00:36.512Z,81.68
2023-11-18T03:03:09.850Z,84.05
2023-11-18T03:05:39.267Z,83.04
2023-11-18T03:08:09.072Z,81.39
2023-11-18T03:10:39.526Z,81.64
2023-11-18T03:13:10.407Z,81.28
2023-11-18T03:15:42.686Z,82.19
2023-11-18T03:18:11.479Z,81.37
2023-11-18T03:20:42.172Z,82.24
2023-11-18T03:23:11.400Z,81.40
2023-11-18T03:25:44.820Z,83.30
2023-11-18T03:28:15.801Z,85.27
2023-11-18T03:30:44.983Z,87.07
2023-11-18T03:33:13.754Z,83.77
2023-11-18T03:35:44.397Z,87.01
2023-11-18T03:38:14.229Z,87.16
2023-11-18T03:40:43.717Z,88.88
2023-11-18T03:43:12.917Z,89.69
2023-11-18T03:45:46.280Z,90.03
2023-11-18T03:48:16.021Z,89.43
2023-11-18T03:50:45.533Z,89.70
2023-11-18T03:53:14.634Z,89.91
2023-11-18T03:55:43.752Z,89.52
2023-11-18T03:58:13.020Z,90.35
2023-11-18T04:00:42.273Z,90.17
2023-11-18T04:03:13.338Z,89.59
2023-11-18T04:05:42.644Z,87.96
2023-11-18T04:08:12.875Z,88.61
2023-11-18T04:10:45.093Z,90.24
2023-11-18T04:13:14.095Z,89.64
2023-11-18T04:15:43.376Z,90.66
2023-11-18T04:18:14.115Z,91.12
2023-11-18T04:20:43.841Z,90.82
2023-11-18T04:23:14.584Z,90.20
2023-11-18T04:25:46.207Z,90.13
2023-11-18T04:28:15.406Z,90.56
2023-11-18T04:30:46.937Z,90.62
2023-11-18T04:33:17.044Z,90.95
2023-11-18T04:35:48.421Z,90.85
2023-11-18T04:38:17.243Z,90.25
2023-11-18T04:40:47.100Z,90.64
2023-11-18T04:43:16.455Z,91.22
2023-11-18T04:45:46.231Z,91.28
2023-11-18T04:48:16.752Z,90.99
2023-11-18T04:50:46.488Z,91.69
2023-11-18T04:53:16.276Z,91.21
2023-11-18T04:55:46.142Z,90.12
2023-11-18T04:58:15.304Z,89.34
2023-11-18T05:00:44.947Z,89.77
2023-11-18T05:03:14.348Z,90.33
2023-11-18T05:05:45.004Z,91.05
2023-11-18T05:08:22.233Z,90.44
2023-11-18T05:10:55.476Z,91.04
2023-11-18T05:13:24.573Z,90.97
2023-11-18T05:15:55.521Z,91.34
2023-11-18T05:18:26.766Z,90.96
2023-11-18T05:20:58.443Z,91.38
2023-11-18T05:23:27.151Z,91.66
2023-11-18T05:25:56.488Z,91.29
2023-11-18T05:28:25.702Z,90.71
2023-11-18T05:30:59.137Z,90.63
2023-11-18T05:33:29.189Z,90.82
2023-11-18T05:35:59.604Z,91.41
2023-11-18T05:38:33.293Z,89.95
2023-11-18T05:41:02.897Z,88.89
2023-11-18T05:43:38.326Z,89.67
2023-11-18T05:46:21.930Z,89.89
2023-11-18T05:48:52.243Z,89.90
2023-11-18T05:51:24.475Z,90.37
2023-11-18T05:53:54.271Z,90.25
2023-11-18T05:56:24.968Z,90.86
2023-11-18T05:58:55.734Z,90.17
2023-11-18T06:01:28.929Z,90.65
2023-11-18T06:03:58.379Z,90.05
2023-11-18T06:06:29.388Z,90.84
2023-11-18T06:09:06.110Z,91.51
2023-11-18T06:11:38.446Z,91.65
2023-11-18T06:14:09.865Z,91.13
2023-11-18T06:16:43.295Z,90.69
2023-11-18T06:19:12.848Z,91.22
2023-11-18T06:21:43.207Z,90.24
2023-11-18T06:24:14.245Z,89.85
2023-11-18T06:26:46.099Z,90.01
2023-11-18T06:29:16.211Z,90.44
2023-11-18T06:31:45.674Z,89.95
2023-11-18T06:34:15.187Z,90.19
2023-11-18T06:36:46.088Z,89.75
2023-11-18T06:39:15.184Z,89.70
2023-11-18T06:41:50.214Z,89.32
2023-11-18T06:44:24.999Z,90.09
2023-11-18T06:46:53.982Z,90.08
2023-11-18T06:49:23.136Z,89.59
2023-11-18T06:52:11.361Z,89.27
2023-11-18T06:54:43.596Z,89.75
2023-11-18T06:57:13.640Z,89.51
2023-11-18T06:59:42.410Z,89.67
2023-11-18T07:02:12.003Z,89.40
2023-11-18T07:04:41.467Z,89.03
2023-11-18T07:07:13.811Z,89.57
2023-11-18T07:09:42.986Z,89.91
2023-11-18T07:12:14.622Z,90.14
2023-11-18T07:14:43.344Z,89.62
2023-11-18T07:17:14.810Z,90.05
2023-11-18T07:19:45.474Z,88.98
2023-11-18T07:22:16.364Z,89.57
2023-11-18T07:24:45.246Z,89.56
2023-11-18T07:27:14.554Z,90.02
2023-11-18T07:29:43.628Z,89.41
2023-11-18T07:32:15.185Z,90.66
2023-11-18T07:34:46.212Z,89.77
2023-11-18T07:37:17.850Z,90.09
2023-11-18T07:39:49.538Z,90.28
2023-11-18T07:42:19.317Z,89.84
2023-11-18T07:44:49.131Z,89.39
2023-11-18T07:47:18.260Z,90.50
2023-11-18T07:49:47.763Z,89.49
2023-11-18T07:52:18.630Z,89.57
2023-11-18T07:54:48.628Z,88.89
2023-11-18T07:57:19.629Z,89.45
2023-11-18T07:59:48.587Z,88.05
2023-11-18T08:02:18.371Z,87.72
2023-11-18T08:04:47.309Z,87.57
2023-11-18T08:07:18.027Z,87.16
2023-11-18T08:09:47.346Z,87.25
2023-11-18T08:12:16.601Z,86.58
2023-11-18T08:14:46.641Z,86.83
2023-11-18T08:17:15.888Z,86.99
2023-11-18T08:19:44.594Z,86.19
2023-11-18T08:22:14.989Z,86.81
2023-11-18T08:24:45.524Z,86.81
2023-11-18T08:27:14.868Z,86.90
2023-11-18T08:29:46.002Z,86.44
2023-11-18T08:32:16.064Z,85.89
2023-11-18T08:34:44.853Z,85.86
2023-11-18T08:37:15.086Z,86.69
2023-11-18T08:39:45.267Z,87.73
2023-11-18T08:42:16.132Z,87.35
2023-11-18T08:44:49.487Z,87.44
2023-11-18T08:47:20.411Z,87.09
2023-11-18T08:49:49.389Z,87.54
2023-11-18T08:52:19.173Z,86.82
2023-11-18T08:55:03.205Z,86.20
2023-11-18T08:57:49.578Z,86.70
2023-11-18T09:00:40.354Z,86.78
2023-11-18T09:03:09.863Z,87.03
2023-11-18T09:05:39.488Z,86.56
2023-11-18T09:08:08.605Z,86.16
2023-11-18T09:10:39.620Z,85.30
2023-11-18T09:13:08.641Z,84.40
2023-11-18T09:15:38.612Z,86.47
2023-11-18T09:18:11.309Z,85.10
2023-11-18T09:20:41.444Z,85.16
2023-11-18T09:23:10.821Z,85.64
2023-11-18T09:25:42.811Z,84.47
2023-11-18T09:28:15.394Z,83.64
2023-11-18T09:30:51.338Z,84.42
2023-11-18T09:33:26.889Z,85.04
2023-11-18T09:35:59.844Z,83.89
2023-11-18T09:38:32.652Z,82.00
2023-11-18T09:41:08.508Z,83.39
2023-11-18T09:43:47.503Z,84.36
2023-11-18T09:46:17.909Z,84.06
2023-11-18T09:48:54.517Z,85.17
2023-11-18T09:51:25.100Z,83.84
2023-11-18T09:53:55.863Z,85.00
2023-11-18T09:56:40.086Z,83.89
2023-11-18T09:59:20.994Z,84.38
2023-11-18T10:01:55.656Z,84.82
2023-11-18T10:04:28.884Z,83.63
2023-11-18T10:06:58.168Z,84.60
2023-11-18T10:09:30.441Z,86.11
2023-11-18T10:12:06.866Z,85.58
2023-11-18T10:14:36.888Z,86.40
2023-11-18T10:17:16.210Z,86.67
2023-11-18T10:20:01.180Z,85.42
2023-11-18T10:22:33.747Z,83.63
2023-11-18T10:25:07.175Z,85.18
2023-11-18T10:27:37.274Z,85.76
2023-11-18T10:30:20.430Z,84.70
2023-11-18T10:33:06.519Z,86.35
2023-11-18T10:35:37.658Z,86.74
2023-11-18T10:38:07.652Z,86.03
2023-11-18T10:40:37.896Z,86.04
2023-11-18T10:43:11.384Z,87.09
2023-11-18T10:45:45.184Z,87.33
2023-11-18T10:48:17.779Z,87.35
2023-11-18T10:50:51.152Z,86.45
2023-11-18T10:53:22.981Z,86.33
2023-11-18T10:55:52.005Z,86.39
2023-11-18T10:58:22.098Z,86.31
2023-11-18T11:00:53.063Z,86.80
2023-11-18T11:03:24.972Z,87.63
2023-11-18T11:05:55.678Z,87.57
2023-11-18T11:08:35.770Z,87.37
2023-11-18T11:11:11.429Z,87.33
2023-11-18T11:13:42.958Z,87.52
2023-11-18T11:16:20.519Z,88.83
2023-11-18T11:18:56.037Z,88.63
2023-11-18T11:21:29.778Z,89.24
2023-11-18T11:24:06.683Z,88.20
2023-11-18T11:26:52.746Z,87.44
2023-11-18T11:29:29.748Z,87.28
2023-11-18T11:32:14.955Z,87.45
2023-11-18T11:34:52.907Z,86.61
2023-11-18T11:37:28.292Z,86.89
2023-11-18T11:39:59.747Z,86.82
2023-11-18T11:42:31.811Z,87.14
2023-11-18T11:45:03.953Z,86.09
2023-11-18T11:47:38.290Z,85.29
2023-11-18T11:50:14.394Z,85.63
2023-11-18T11:52:50.220Z,86.06
2023-11-18T11:55:29.755Z,85.95
2023-11-18T11:58:00.144Z,86.41
2023-11-18T12:00:36.092Z,86.30
2023-11-18T12:03:06.401Z,86.32
2023-11-18T12:05:53.419Z,86.34
2023-11-18T12:08:26.725Z,86.98
2023-11-18T12:10:58.153Z,86.72
2023-11-18T12:13:27.851Z,87.06
2023-11-18T12:15:58.887Z,87.37
2023-11-18T12:18:35.492Z,87.86
2023-11-18T12:21:05.674Z,87.40
2023-11-18T12:23:36.069Z,87.80
2023-11-18T12:26:26.476Z,88.09
2023-11-18T12:28:57.026Z,88.67
2023-11-18T12:31:48.108Z,87.84
2023-11-18T12:34:18.262Z,87.46
2023-11-18T12:37:23.337Z,87.69
2023-11-18T12:40:26.043Z,86.40
2023-11-18T12:43:06.236Z,86.89
2023-11-18T12:45:46.375Z,86.74
2023-11-18T12:48:19.830Z,86.32
2023-11-18T12:50:49.901Z,86.94
2023-11-18T12:53:19.794Z,86.51
2023-11-18T12:55:50.812Z,86.80
2023-11-18T12:58:21.168Z,87.04
2023-11-18T13:00:51.340Z,87.18
2023-11-18T13:03:21.878Z,86.79
2023-11-18T13:05:56.960Z,87.00
2023-11-18T13:08:26.107Z,85.91
2023-11-18T13:11:04.984Z,86.88
2023-11-18T13:13:37.179Z,87.43
2023-11-18T13:16:11.225Z,86.03
2023-11-18T13:18:51.037Z,86.20
2023-11-18T13:21:23.828Z,87.04
2023-11-18T13:23:56.090Z,86.68
2023-11-18T13:26:25.904Z,87.08
2023-11-18T13:28:56.330Z,87.53
2023-11-18T13:31:25.774Z,87.68
2023-11-18T13:33:56.593Z,88.94
2023-11-18T13:36:26.157Z,88.51
2023-11-18T13:38:56.145Z,88.78
2023-11-18T13:41:32.373Z,89.19
2023-11-18T13:44:02.288Z,89.21
2023-11-18T13:46:32.778Z,90.00
2023-11-18T13:49:07.239Z,90.82
2023-11-18T13:51:37.746Z,91.01
2023-11-18T13:54:07.946Z,91.59
2023-11-18T13:56:37.634Z,91.46
2023-11-18T13:59:11.094Z,91.40
2023-11-18T14:01:40.501Z,91.97
2023-11-18T14:04:12.638Z,91.94
2023-11-18T14:06:43.547Z,91.83
2023-11-18T14:09:13.022Z,92.17
2023-11-18T14:11:42.900Z,92.42
2023-11-18T14:14:14.914Z,92.39
2023-11-18T14:16:44.230Z,92.21
2023-11-18T14:19:14.664Z,92.76
2023-11-18T14:21:45.159Z,93.32
2023-11-18T14:24:18.320Z,92.92
2023-11-18T14:26:48.004Z,92.58
2023-11-18T14:29:19.489Z,93.06
2023-11-18T14:31:52.278Z,93.15
2023-11-18T14:34:22.620Z,93.49
2023-11-18T14:36:51.773Z,93.20
2023-11-18T14:39:24.311Z,93.37
2023-11-18T14:41:54.872Z,93.28
2023-11-18T14:44:27.092Z,93.66
2023-11-18T14:46:56.702Z,93.42
2023-11-18T14:49:29.581Z,93.21
2023-11-18T14:52:02.773Z,93.79
2023-11-18T14:54:37.101Z,93.53
2023-11-18T14:57:07.199Z,93.24
2023-11-18T14:59:36.697Z,93.72
2023-11-18T15:02:18.593Z,93.50
2023-11-18T15:04:49.755Z,93.07
2023-11-18T15:07:19.211Z,92.90
2023-11-18T15:09:53.723Z,92.61
2023-11-18T15:12:25.583Z,92.52
2023-11-18T15:14:54.398Z,92.82
2023-11-18T15:17:37.938Z,92.13
2023-11-18T15:20:16.178Z,92.24
2023-11-18T15:22:45.541Z,92.03
2023-11-18T15:25:15.417Z,92.32
2023-11-18T15:27:47.366Z,92.13
2023-11-18T15:30:17.775Z,92.72
2023-11-18T15:32:48.184Z,92.80
2023-11-18T15:35:19.540Z,92.81
2023-11-18T15:37:49.659Z,92.67
2023-11-18T15:40:20.897Z,92.73
2023-11-18T15:42:51.670Z,93.00
2023-11-18T15:45:22.382Z,92.39
2023-11-18T15:47:51.949Z,93.03
2023-11-18T15:50:22.608Z,93.09
2023-11-18T15:52:53.685Z,93.43
2023-11-18T15:55:24.432Z,93.10
2023-11-18T15:57:55.466Z,92.97
2023-11-18T16:00:27.275Z,92.40
2023-11-18T16:03:02.048Z,92.25
2023-11-18T16:05:40.972Z,92.52
2023-11-18T16:08:11.463Z,93.19
2023-11-18T16:10:44.823Z,93.38
2023-11-18T16:13:14.735Z,93.94
2023-11-18T16:15:47.375Z,93.82
2023-11-18T16:18:17.214Z,93.94
2023-11-18T16:20:49.920Z,94.60
2023-11-18T16:23:19.764Z,94.20
2023-11-18T16:25:48.949Z,94.25
2023-11-18T16:28:18.305Z,94.22
2023-11-18T16:30:48.421Z,94.25
2023-11-18T16:33:20.638Z,94.28
2023-11-18T16:35:54.730Z,94.84
2023-11-18T16:38:26.935Z,95.09
2023-11-18T16:40:56.062Z,94.69
2023-11-18T16:43:25.162Z,93.89
2023-11-18T16:45:54.162Z,94.08
2023-11-18T16:48:23.393Z,93.88
2023-11-18T16:50:55.104Z,93.96
2023-11-18T16:53:25.351Z,93.91
2023-11-18T16:55:54.494Z,93.31
2023-11-18T16:58:23.806Z,93.38
2023-11-18T17:00:54.185Z,93.42
2023-11-18T17:03:26.326Z,93.22
2023-11-18T17:05:56.967Z,93.60
2023-11-18T17:08:26.533Z,93.60
2023-11-18T17:10:55.625Z,93.03
2023-11-18T17:13:26.876Z,92.41
2023-11-18T17:15:55.772Z,92.55
2023-11-18T17:18:24.922Z,92.33
2023-11-18T17:20:54.386Z,92.24
2023-11-18T17:23:26.324Z,92.31
2023-11-18T17:25:57.212Z,92.32
2023-11-18T17:28:28.747Z,92.19
2023-11-18T17:30:58.063Z,92.15
2023-11-18T17:33:31.153Z,92.44
2023-11-18T17:36:03.173Z,92.34
2023-11-18T17:38:34.454Z,91.70
2023-11-18T17:41:03.472Z,91.87
2023-11-18T17:43:34.086Z,91.38
2023-11-18T17:46:03.144Z,91.90
2023-11-18T17:48:34.996Z,91.31
2023-11-18T17:51:04.023Z,91.15
2023-11-18T17:53:36.041Z,91.72
2023-11-18T17:56:06.785Z,91.21
2023-11-18T17:58:37.065Z,92.06
2023-11-18T18:01:23.907Z,92.08
2023-11-18T18:04:05.278Z,91.77
2023-11-18T18:06:38.575Z,92.05
2023-11-18T18:09:18.067Z,92.25
2023-11-18T18:11:47.021Z,91.84
2023-11-18T18:14:22.738Z,92.19
2023-11-18T18:16:51.745Z,92.57
2023-11-18T18:19:28.165Z,92.15
2023-11-18T18:22:09.191Z,92.21
2023-11-18T18:24:48.234Z,91.85
2023-11-18T18:27:18.280Z,91.78
2023-11-18T18:29:48.420Z,92.00
2023-11-18T18:32:19.974Z,92.04
2023-11-18T18:34:49.209Z,91.84
2023-11-18T18:37:18.482Z,91.10
2023-11-18T18:39:54.192Z,91.76
2023-11-18T18:42:23.249Z,92.07
2023-11-18T18:44:55.755Z,91.88
2023-11-18T18:47:27.862Z,91.89
2023-11-18T18:50:00.254Z,91.99
2023-11-18T18:52:29.738Z,91.84
2023-11-18T18:55:00.609Z,91.60
2023-11-18T18:57:29.616Z,92.08
2023-11-18T19:00:05.867Z,91.46
2023-11-18T19:02:35.699Z,91.16
2023-11-18T19:05:06.039Z,91.16
2023-11-18T19:07:40.997Z,90.82
2023-11-18T19:10:12.913Z,90.89
2023-11-18T19:12:43.641Z,91.05
2023-11-18T19:15:18.377Z,90.96
2023-11-18T19:17:51.450Z,90.59
2023-11-18T19:20:27.805Z,90.91
2023-11-18T19:23:06.127Z,89.98
2023-11-18T19:25:48.163Z,90.62
2023-11-18T19:28:20.744Z,90.43
2023-11-18T19:30:50.222Z,91.01
2023-11-18T19:33:20.713Z,90.71
2023-11-18T19:35:56.009Z,90.39
2023-11-18T19:38:25.015Z,90.80
2023-11-18T19:40:56.300Z,91.23
2023-11-18T19:43:30.117Z,90.89
2023-11-18T19:46:00.978Z,90.53
2023-11-18T19:48:48.348Z,90.11
2023-11-18T19:51:30.631Z,90.43
2023-11-18T19:54:03.102Z,90.05
2023-11-18T19:56:39.102Z,89.66
2023-11-18T19:59:10.690Z,90.10
2023-11-18T20:01:40.355Z,89.41
2023-11-18T20:04:09.433Z,89.72
2023-11-18T20:06:39.193Z,90.22
2023-11-18T20:09:09.480Z,89.51
2023-11-18T20:11:50.128Z,89.21
2023-11-18T20:14:21.748Z,89.44
2023-11-18T20:16:53.154Z,89.50
2023-11-18T20:19:26.121Z,89.54
2023-11-18T20:21:55.686Z,89.76
2023-11-18T20:24:28.311Z,90.76
2023-11-18T20:27:02.954Z,90.19
2023-11-18T20:29:37.133Z,90.25
2023-11-18T20:32:09.407Z,91.01
2023-11-18T20:34:38.938Z,90.97
2023-11-18T20:37:13.730Z,90.71
2023-11-18T20:39:45.396Z,90.16
2023-11-18T20:42:44.945Z,90.66
2023-11-18T20:45:15.576Z,89.78
2023-11-18T20:47:50.313Z,88.44
2023-11-18T20:50:19.673Z,88.61
2023-11-18T20:52:52.520Z,88.19
2023-11-18T20:58:03.492Z,87.27
2023-11-18T21:00:37.301Z,88.06
2023-11-18T21:03:08.248Z,88.21
2023-11-18T21:05:47.351Z,88.20
2023-11-18T21:08:17.752Z,88.77
2023-11-18T21:10:50.224Z,88.34
2023-11-18T21:13:22.141Z,88.52
2023-11-18T21:15:51.872Z,88.97
2023-11-18T21:18:24.349Z,88.87
2023-11-18T21:20:55.527Z,87.95
2023-11-18T21:23:24.977Z,88.23
2023-11-18T21:25:54.570Z,88.23
2023-11-18T21:28:26.642Z,88.26
2023-11-18T21:30:55.752Z,88.55
2023-11-18T21:33:25.119Z,89.17
2023-11-18T21:35:54.291Z,88.22
2023-11-18T21:38:24.293Z,88.46
2023-11-18T21:40:56.363Z,88.56
2023-11-18T21:43:30.252Z,89.02
2023-11-18T21:45:59.605Z,88.10
2023-11-18T21:48:32.779Z,89.22
2023-11-18T21:51:01.643Z,88.74
2023-11-18T21:53:32.803Z,88.61
2023-11-18T21:56:02.923Z,89.49
2023-11-18T21:58:33.696Z,89.90
2023-11-18T22:01:02.913Z,89.92
2023-11-18T22:03:32.779Z,90.43
2023-11-18T22:06:02.057Z,90.90
2023-11-18T22:08:31.023Z,91.58
2023-11-18T22:11:02.133Z,91.56
2023-11-18T22:13:33.195Z,92.19
2023-11-18T22:16:05.278Z,92.63
2023-11-18T22:18:39.598Z,92.61
2023-11-18T22:21:13.371Z,92.81
2023-11-18T22:23:49.770Z,93.19
2023-11-18T22:26:19.684Z,93.43
2023-11-18T22:28:52.959Z,93.28
2023-11-18T22:31:24.190Z,92.33
2023-11-18T22:34:11.053Z,92.35
2023-11-18T22:36:46.532Z,92.72
2023-11-18T22:39:24.104Z,92.95
2023-11-18T22:41:53.204Z,92.83
2023-11-18T22:44:27.500Z,92.93
2023-11-18T22:46:56.905Z,93.48
2023-11-18T22:49:47.263Z,93.64
2023-11-18T22:52:18.380Z,93.47
2023-11-18T22:54:57.793Z,93.42
2023-11-18T22:57:27.710Z,94.15
2023-11-18T23:00:01.925Z,93.55
2023-11-18T23:02:33.005Z,93.70
2023-11-18T23:05:09.770Z,94.03
2023-11-18T23:07:46.212Z,94.72
2023-11-18T23:10:16.492Z,94.58
2023-11-18T23:12:46.092Z,94.00
2023-11-18T23:15:18.217Z,94.82
2023-11-18T23:17:47.487Z,94.63
2023-11-18T23:20:16.442Z,95.16
2023-11-18T23:22:45.384Z,94.86
2023-11-18T23:25:14.432Z,94.73
2023-11-18T23:27:45.764Z,95.11
2023-11-18T23:30:22.227Z,94.65
2023-11-18T23:32:51.656Z,94.85
2023-11-18T23:35:24.056Z,94.71
2023-11-18T23:37:53.638Z,95.49
2023-11-18T23:40:24.961Z,95.20
2023-11-18T23:42:56.426Z,95.34
2023-11-18T23:45:27.114Z,95.18
2023-11-18T23:47:59.093Z,95.71
2023-11-18T23:50:32.853Z,95.39
2023-11-18T23:53:02.308Z,95.12
2023-11-18T23:55:33.268Z,95.02
2023-11-18T23:58:02.457Z,94.79
